sensor_id;sensor_type;location;lat;lon;timestamp;pressure;altitude;pressure_sealevel;temperature;humidity
9525;BME280;15940;48.734;9.112;2022-07-05T00:01:24;74062.88;;;-144.91;71.28
9525;BME280;15940;48.734;9.112;2022-07-05T00:03:51;74071.19;;;-144.91;72.04
9525;BME280;15940;48.734;9.112;2022-07-05T00:06:18;74067.03;;;-144.91;72.62
9525;BME280;15940;48.734;9.112;2022-07-05T00:08:45;74069.13;;;-144.91;73.72
9525;BME280;15940;48.734;9.112;2022-07-05T00:11:13;74077.41;;;-144.91;72.64
9525;BME280;15940;48.734;9.112;2022-07-05T00:13:40;74079.47;;;-144.91;72.12
9525;BME280;15940;48.734;9.112;2022-07-05T00:16:07;74089.84;;;-144.91;72.22
9525;BME280;15940;48.734;9.112;2022-07-05T00:18:34;74096.09;;;-144.91;72.37
9525;BME280;15940;48.734;9.112;2022-07-05T00:21:01;74100.22;;;-144.91;71.76
9525;BME280;15940;48.734;9.112;2022-07-05T00:23:28;74102.31;;;-144.91;70.90
9525;BME280;15940;48.734;9.112;2022-07-05T00:25:55;74106.44;;;-144.91;70.30
9525;BME280;15940;48.734;9.112;2022-07-05T00:28:23;74096.09;;;-144.91;73.96
9525;BME280;15940;48.734;9.112;2022-07-05T00:30:50;74098.16;;;-144.91;73.55
9525;BME280;15940;48.734;9.112;2022-07-05T00:33:17;74098.16;;;-144.91;72.14
9525;BME280;15940;48.734;9.112;2022-07-05T00:35:44;74100.22;;;-144.91;73.79
9525;BME280;15940;48.734;9.112;2022-07-05T00:38:11;74083.63;;;-144.91;75.19
9525;BME280;15940;48.734;9.112;2022-07-05T00:40:38;74079.47;;;-144.91;74.70
9525;BME280;15940;48.734;9.112;2022-07-05T00:43:05;74075.34;;;-144.91;75.20
9525;BME280;15940;48.734;9.112;2022-07-05T00:45:33;74083.63;;;-144.91;74.94
9525;BME280;15940;48.734;9.112;2022-07-05T00:48:00;74073.25;;;-144.91;75.61
9525;BME280;15940;48.734;9.112;2022-07-05T00:50:27;74069.13;;;-144.91;75.27
9525;BME280;15940;48.734;9.112;2022-07-05T00:52:55;74075.34;;;-144.91;75.37
9525;BME280;15940;48.734;9.112;2022-07-05T00:55:23;74077.41;;;-144.91;75.29
9525;BME280;15940;48.734;9.112;2022-07-05T00:57:50;74075.34;;;-144.91;74.95
9525;BME280;15940;48.734;9.112;2022-07-05T01:00:17;74089.84;;;-144.91;73.92
9525;BME280;15940;48.734;9.112;2022-07-05T01:02:46;74094.00;;;-144.91;74.99
9525;BME280;15940;48.734;9.112;2022-07-05T01:05:14;74100.22;;;-144.91;74.65
9525;BME280;15940;48.734;9.112;2022-07-05T01:07:41;74116.81;;;-144.91;74.97
9525;BME280;15940;48.734;9.112;2022-07-05T01:10:09;74110.59;;;-144.91;75.76
9525;BME280;15940;48.734;9.112;2022-07-05T01:12:38;74112.66;;;-144.91;76.42
9525;BME280;15940;48.734;9.112;2022-07-05T01:15:07;74135.50;;;-144.91;74.54
9525;BME280;15940;48.734;9.112;2022-07-05T01:17:34;74123.03;;;-144.91;76.16
9525;BME280;15940;48.734;9.112;2022-07-05T01:20:05;74125.13;;;-144.91;75.36
9525;BME280;15940;48.734;9.112;2022-07-05T01:22:50;74127.19;;;-144.91;73.95
9525;BME280;15940;48.734;9.112;2022-07-05T01:25:22;74125.13;;;-144.91;75.21
9525;BME280;15940;48.734;9.112;2022-07-05T01:27:49;74118.91;;;-144.91;73.66
9525;BME280;15940;48.734;9.112;2022-07-05T01:30:17;74116.81;;;-144.91;74.54
9525;BME280;15940;48.734;9.112;2022-07-05T01:32:45;74108.53;;;-144.91;72.75
9525;BME280;15940;48.734;9.112;2022-07-05T01:35:13;74106.44;;;-144.91;72.76
9525;BME280;15940;48.734;9.112;2022-07-05T01:37:48;74110.59;;;-144.91;71.12
9525;BME280;15940;48.734;9.112;2022-07-05T01:40:15;74102.31;;;-144.91;73.37
9525;BME280;15940;48.734;9.112;2022-07-05T01:42:43;74102.31;;;-144.91;72.95
9525;BME280;15940;48.734;9.112;2022-07-05T01:45:11;74096.09;;;-144.91;74.47
9525;BME280;15940;48.734;9.112;2022-07-05T01:47:42;74100.22;;;-144.91;73.95
9525;BME280;15940;48.734;9.112;2022-07-05T01:50:13;74089.84;;;-144.91;75.49
9525;BME280;15940;48.734;9.112;2022-07-05T01:52:43;74085.72;;;-144.91;76.26
9525;BME280;15940;48.734;9.112;2022-07-05T01:55:11;74089.84;;;-144.91;75.16
9525;BME280;15940;48.734;9.112;2022-07-05T01:57:39;74096.09;;;-144.91;75.71
9525;BME280;15940;48.734;9.112;2022-07-05T02:00:07;74100.22;;;-144.91;75.05
9525;BME280;15940;48.734;9.112;2022-07-05T02:02:36;74098.16;;;-144.91;75.06
9525;BME280;15940;48.734;9.112;2022-07-05T02:05:06;74100.22;;;-144.91;74.48
9525;BME280;15940;48.734;9.112;2022-07-05T02:07:33;74116.81;;;-144.91;75.15
9525;BME280;15940;48.734;9.112;2022-07-05T02:10:00;74100.22;;;-144.91;75.38
9525;BME280;15940;48.734;9.112;2022-07-05T02:12:28;74112.66;;;-144.91;74.48
9525;BME280;15940;48.734;9.112;2022-07-05T02:14:55;74120.97;;;-144.91;75.29
9525;BME280;15940;48.734;9.112;2022-07-05T02:17:22;74116.81;;;-144.91;75.42
9525;BME280;15940;48.734;9.112;2022-07-05T02:19:49;74118.91;;;-144.91;75.26
9525;BME280;15940;48.734;9.112;2022-07-05T02:22:16;74127.19;;;-144.91;74.96
9525;BME280;15940;48.734;9.112;2022-07-05T02:24:43;74127.19;;;-144.91;74.85
9525;BME280;15940;48.734;9.112;2022-07-05T02:27:10;74131.34;;;-144.91;75.30
9525;BME280;15940;48.734;9.112;2022-07-05T02:29:38;74133.41;;;-144.91;75.30
9525;BME280;15940;48.734;9.112;2022-07-05T02:32:05;74139.63;;;-144.91;74.88
9525;BME280;15940;48.734;9.112;2022-07-05T02:34:32;74141.72;;;-144.91;76.23
9525;BME280;15940;48.734;9.112;2022-07-05T02:37:00;74141.72;;;-144.91;76.05
9525;BME280;15940;48.734;9.112;2022-07-05T02:39:26;74143.78;;;-144.91;75.89
9525;BME280;15940;48.734;9.112;2022-07-05T02:41:53;74156.22;;;-144.91;75.95
9525;BME280;15940;48.734;9.112;2022-07-05T02:44:20;74160.38;;;-144.91;76.61
9525;BME280;15940;48.734;9.112;2022-07-05T02:46:49;74193.56;;;-144.91;74.87
9525;BME280;15940;48.734;9.112;2022-07-05T02:49:16;74197.72;;;-144.91;76.76
9525;BME280;15940;48.734;9.112;2022-07-05T02:51:43;74195.66;;;-144.91;76.96
9525;BME280;15940;48.734;9.112;2022-07-05T02:54:10;74193.56;;;-144.91;78.31
9525;BME280;15940;48.734;9.112;2022-07-05T02:56:36;74187.34;;;-144.91;76.31
9525;BME280;15940;48.734;9.112;2022-07-05T02:59:03;74181.13;;;-144.91;78.34
9525;BME280;15940;48.734;9.112;2022-07-05T03:01:31;74176.97;;;-144.91;78.80
9525;BME280;15940;48.734;9.112;2022-07-05T03:03:59;74170.75;;;-144.91;78.41
9525;BME280;15940;48.734;9.112;2022-07-05T03:06:26;74162.47;;;-144.91;76.68
9525;BME280;15940;48.734;9.112;2022-07-05T03:08:53;74166.59;;;-144.91;78.12
9525;BME280;15940;48.734;9.112;2022-07-05T03:11:20;74183.19;;;-144.91;76.52
9525;BME280;15940;48.734;9.112;2022-07-05T03:13:47;74179.06;;;-144.91;77.23
9525;BME280;15940;48.734;9.112;2022-07-05T03:16:14;74183.19;;;-144.91;78.08
9525;BME280;15940;48.734;9.112;2022-07-05T03:18:40;74193.56;;;-144.91;76.42
9525;BME280;15940;48.734;9.112;2022-07-05T03:21:09;74187.34;;;-144.91;78.08
9525;BME280;15940;48.734;9.112;2022-07-05T03:23:36;74195.66;;;-144.91;78.18
9525;BME280;15940;48.734;9.112;2022-07-05T03:26:03;74197.72;;;-144.91;77.74
9525;BME280;15940;48.734;9.112;2022-07-05T03:28:30;74191.50;;;-144.91;78.16
9525;BME280;15940;48.734;9.112;2022-07-05T03:30:57;74185.28;;;-144.91;77.06
9525;BME280;15940;48.734;9.112;2022-07-05T03:33:24;74189.44;;;-144.91;76.59
9525;BME280;15940;48.734;9.112;2022-07-05T03:35:51;74191.50;;;-144.91;76.76
9525;BME280;15940;48.734;9.112;2022-07-05T03:38:19;74199.78;;;-144.91;76.91
9525;BME280;15940;48.734;9.112;2022-07-05T03:40:46;74195.66;;;-144.91;78.26
9525;BME280;15940;48.734;9.112;2022-07-05T03:43:13;74203.94;;;-144.91;78.26
9525;BME280;15940;48.734;9.112;2022-07-05T03:45:40;74201.88;;;-144.91;76.47
9525;BME280;15940;48.734;9.112;2022-07-05T03:48:07;74210.16;;;-144.91;76.85
9525;BME280;15940;48.734;9.112;2022-07-05T03:50:34;74203.94;;;-144.91;77.41
9525;BME280;15940;48.734;9.112;2022-07-05T03:53:00;74210.16;;;-144.91;77.97
9525;BME280;15940;48.734;9.112;2022-07-05T03:55:29;74210.16;;;-144.91;77.45
9525;BME280;15940;48.734;9.112;2022-07-05T03:57:56;74208.09;;;-144.91;77.90
9525;BME280;15940;48.734;9.112;2022-07-05T04:00:23;74210.16;;;-144.91;75.73
9525;BME280;15940;48.734;9.112;2022-07-05T04:02:49;74220.53;;;-144.91;75.80
9525;BME280;15940;48.734;9.112;2022-07-05T04:05:16;74220.53;;;-144.91;76.40
9525;BME280;15940;48.734;9.112;2022-07-05T04:07:48;74216.38;;;-144.91;77.79
9525;BME280;15940;48.734;9.112;2022-07-05T04:10:17;74212.25;;;-144.91;77.80
9525;BME280;15940;48.734;9.112;2022-07-05T04:12:46;74199.78;;;-144.91;77.91
9525;BME280;15940;48.734;9.112;2022-07-05T04:15:14;74210.16;;;-144.91;77.41
9525;BME280;15940;48.734;9.112;2022-07-05T04:17:48;74218.47;;;-144.91;76.79
9525;BME280;15940;48.734;9.112;2022-07-05T04:20:15;74224.69;;;-144.91;77.12
9525;BME280;15940;48.734;9.112;2022-07-05T04:22:42;74218.47;;;-144.91;77.13
9525;BME280;15940;48.734;9.112;2022-07-05T04:25:09;74210.16;;;-144.91;76.45
9525;BME280;15940;48.734;9.112;2022-07-05T04:27:49;74208.09;;;-144.91;74.74
9525;BME280;15940;48.734;9.112;2022-07-05T04:30:17;74212.25;;;-144.91;73.73
9525;BME280;15940;48.734;9.112;2022-07-05T04:32:45;74203.94;;;-144.91;74.62
9525;BME280;15940;48.734;9.112;2022-07-05T04:35:12;74189.44;;;-144.91;74.69
9525;BME280;15940;48.734;9.112;2022-07-05T04:37:39;74199.78;;;-144.91;75.12
9525;BME280;15940;48.734;9.112;2022-07-05T04:40:10;74201.88;;;-144.91;75.44
9525;BME280;15940;48.734;9.112;2022-07-05T04:42:38;74195.66;;;-144.91;74.77
9525;BME280;15940;48.734;9.112;2022-07-05T04:45:08;74191.50;;;-144.91;75.70
9525;BME280;15940;48.734;9.112;2022-07-05T04:47:35;74181.13;;;-144.91;74.25
9525;BME280;15940;48.734;9.112;2022-07-05T04:50:05;74183.19;;;-144.91;71.60
9525;BME280;15940;48.734;9.112;2022-07-05T04:52:32;74187.34;;;-144.91;72.76
9525;BME280;15940;48.734;9.112;2022-07-05T04:54:59;74183.19;;;-144.91;72.26
9525;BME280;15940;48.734;9.112;2022-07-05T04:57:26;74187.34;;;-144.91;71.89
9525;BME280;15940;48.734;9.112;2022-07-05T04:59:53;74179.06;;;-144.91;73.60
9525;BME280;15940;48.734;9.112;2022-07-05T05:02:21;74172.81;;;-144.91;73.48
9525;BME280;15940;48.734;9.112;2022-07-05T05:04:48;74179.06;;;-144.91;72.65
9525;BME280;15940;48.734;9.112;2022-07-05T05:07:15;74174.91;;;-144.91;74.34
9525;BME280;15940;48.734;9.112;2022-07-05T05:09:42;74187.34;;;-144.91;73.70
9525;BME280;15940;48.734;9.112;2022-07-05T05:12:09;74176.97;;;-144.91;73.99
9525;BME280;15940;48.734;9.112;2022-07-05T05:14:36;74170.75;;;-144.91;70.29
9525;BME280;15940;48.734;9.112;2022-07-05T05:17:03;74172.81;;;-144.91;70.98
9525;BME280;15940;48.734;9.112;2022-07-05T05:19:32;74170.75;;;-144.91;71.95
9525;BME280;15940;48.734;9.112;2022-07-05T05:21:59;74170.75;;;-144.91;70.64
9525;BME280;15940;48.734;9.112;2022-07-05T05:24:26;74174.91;;;-144.91;70.73
9525;BME280;15940;48.734;9.112;2022-07-05T05:26:53;74168.69;;;-144.91;70.40
9525;BME280;15940;48.734;9.112;2022-07-05T05:29:20;74168.69;;;-144.91;71.26
9525;BME280;15940;48.734;9.112;2022-07-05T05:31:47;74174.91;;;-144.91;69.04
9525;BME280;15940;48.734;9.112;2022-07-05T05:34:14;74172.81;;;-144.91;68.75
9525;BME280;15940;48.734;9.112;2022-07-05T05:36:42;74170.75;;;-144.91;71.58
9525;BME280;15940;48.734;9.112;2022-07-05T05:39:09;74158.31;;;-144.91;69.18
9525;BME280;15940;48.734;9.112;2022-07-05T05:41:36;74156.22;;;-144.91;69.78
9525;BME280;15940;48.734;9.112;2022-07-05T05:44:04;74147.94;;;-144.91;69.68
9525;BME280;15940;48.734;9.112;2022-07-05T05:46:31;74135.50;;;-144.91;68.57
9525;BME280;15940;48.734;9.112;2022-07-05T05:48:58;74127.19;;;-144.91;67.09
9525;BME280;15940;48.734;9.112;2022-07-05T05:51:25;74123.03;;;-144.91;69.58
9525;BME280;15940;48.734;9.112;2022-07-05T05:53:53;74118.91;;;-144.91;66.35
9525;BME280;15940;48.734;9.112;2022-07-05T05:56:20;74110.59;;;-144.91;68.15
9525;BME280;15940;48.734;9.112;2022-07-05T05:58:47;74104.38;;;-144.91;68.86
9525;BME280;15940;48.734;9.112;2022-07-05T06:01:14;74104.38;;;-144.91;66.71
9525;BME280;15940;48.734;9.112;2022-07-05T06:03:41;74096.09;;;-144.91;66.24
9525;BME280;15940;48.734;9.112;2022-07-05T06:06:08;74087.78;;;-144.91;67.09
9525;BME280;15940;48.734;9.112;2022-07-05T06:08:35;74081.56;;;-144.91;65.54
9525;BME280;15940;48.734;9.112;2022-07-05T06:11:03;74069.13;;;-144.91;63.17
9525;BME280;15940;48.734;9.112;2022-07-05T06:13:30;74071.19;;;-144.91;64.54
9525;BME280;15940;48.734;9.112;2022-07-05T06:15:58;74058.75;;;-144.91;66.01
9525;BME280;15940;48.734;9.112;2022-07-05T06:18:24;74056.66;;;-144.91;64.62
9525;BME280;15940;48.734;9.112;2022-07-05T06:20:51;74044.22;;;-144.91;65.22
9525;BME280;15940;48.734;9.112;2022-07-05T06:23:18;74044.22;;;-144.91;63.10
9525;BME280;15940;48.734;9.112;2022-07-05T06:25:45;74031.78;;;-144.91;62.90
9525;BME280;15940;48.734;9.112;2022-07-05T06:28:14;74015.19;;;-144.91;61.03
9525;BME280;15940;48.734;9.112;2022-07-05T06:30:41;74006.88;;;-144.91;62.54
9525;BME280;15940;48.734;9.112;2022-07-05T06:33:08;73994.44;;;-144.91;60.90
9525;BME280;15940;48.734;9.112;2022-07-05T06:35:37;73990.28;;;-144.91;61.62
9525;BME280;15940;48.734;9.112;2022-07-05T06:38:06;73969.53;;;-144.91;58.70
9525;BME280;15940;48.734;9.112;2022-07-05T06:40:35;73952.94;;;-144.91;59.91
9525;BME280;15940;48.734;9.112;2022-07-05T06:43:05;73940.50;;;-144.91;59.24
9525;BME280;15940;48.734;9.112;2022-07-05T06:45:34;73909.41;;;-144.91;58.13
9525;BME280;15940;48.734;9.112;2022-07-05T06:48:03;73884.50;;;-144.91;57.85
9525;BME280;15940;48.734;9.112;2022-07-05T06:50:32;73843.03;;;-144.91;56.41
9525;BME280;15940;48.734;9.112;2022-07-05T06:53:01;73780.78;;;-144.91;53.47
9525;BME280;15940;48.734;9.112;2022-07-05T06:55:28;73731.00;;;-144.91;55.20
9525;BME280;15940;48.734;9.112;2022-07-05T06:57:59;73662.56;;;-144.91;52.09
9525;BME280;15940;48.734;9.112;2022-07-05T07:00:27;73625.25;;;-144.91;49.75
9525;BME280;15940;48.734;9.112;2022-07-05T07:02:55;73589.97;;;-144.91;49.39
9525;BME280;15940;48.734;9.112;2022-07-05T07:05:22;73556.78;;;-144.91;48.46
9525;BME280;15940;48.734;9.112;2022-07-05T07:07:49;73465.53;;;-144.91;47.90
9525;BME280;15940;48.734;9.112;2022-07-05T07:10:34;73457.25;;;-144.91;45.10
9525;BME280;15940;48.734;9.112;2022-07-05T07:13:01;73488.34;;;-144.91;44.99
9525;BME280;15940;48.734;9.112;2022-07-05T07:15:29;73471.75;;;-144.91;44.41
9525;BME280;15940;48.734;9.112;2022-07-05T07:17:57;73459.31;;;-144.91;45.60
9525;BME280;15940;48.734;9.112;2022-07-05T07:20:25;73436.50;;;-144.91;46.10
9525;BME280;15940;48.734;9.112;2022-07-05T07:22:52;73407.47;;;-144.91;45.77
9525;BME280;15940;48.734;9.112;2022-07-05T07:25:19;73366.00;;;-144.91;44.03
9525;BME280;15940;48.734;9.112;2022-07-05T07:27:51;73419.91;;;-144.91;40.97
9525;BME280;15940;48.734;9.112;2022-07-05T07:30:21;73407.47;;;-144.91;42.95
9525;BME280;15940;48.734;9.112;2022-07-05T07:32:48;73413.69;;;-144.91;40.85
9525;BME280;15940;48.734;9.112;2022-07-05T07:35:16;73432.34;;;-144.91;42.03
9525;BME280;15940;48.734;9.112;2022-07-05T07:37:43;73436.50;;;-144.91;41.51
9525;BME280;15940;48.734;9.112;2022-07-05T07:40:11;73430.28;;;-144.91;42.20
9525;BME280;15940;48.734;9.112;2022-07-05T07:42:38;73440.66;;;-144.91;41.89
9525;BME280;15940;48.734;9.112;2022-07-05T07:45:07;73426.13;;;-144.91;41.09
9525;BME280;15940;48.734;9.112;2022-07-05T07:47:36;73426.13;;;-144.91;42.94
9525;BME280;15940;48.734;9.112;2022-07-05T07:50:05;73434.44;;;-144.91;42.22
9525;BME280;15940;48.734;9.112;2022-07-05T07:52:33;73390.88;;;-144.91;41.33
9525;BME280;15940;48.734;9.112;2022-07-05T07:55:02;73382.59;;;-144.91;42.37
9525;BME280;15940;48.734;9.112;2022-07-05T07:57:29;73374.28;;;-144.91;40.61
9525;BME280;15940;48.734;9.112;2022-07-05T07:59:56;73386.72;;;-144.91;42.77
9525;BME280;15940;48.734;9.112;2022-07-05T08:02:23;73384.66;;;-144.91;43.26
9525;BME280;15940;48.734;9.112;2022-07-05T08:04:51;73382.59;;;-144.91;40.11
9525;BME280;15940;48.734;9.112;2022-07-05T08:07:19;73390.88;;;-144.91;40.14
9525;BME280;15940;48.734;9.112;2022-07-05T08:09:47;73370.13;;;-144.91;40.50
9525;BME280;15940;48.734;9.112;2022-07-05T08:12:14;73368.06;;;-144.91;40.80
9525;BME280;15940;48.734;9.112;2022-07-05T08:14:41;73372.22;;;-144.91;40.06
9525;BME280;15940;48.734;9.112;2022-07-05T08:17:08;73349.41;;;-144.91;41.05
9525;BME280;15940;48.734;9.112;2022-07-05T08:19:36;73336.97;;;-144.91;38.75
9525;BME280;15940;48.734;9.112;2022-07-05T08:22:21;73314.16;;;-144.91;42.04
9525;BME280;15940;48.734;9.112;2022-07-05T08:24:50;73314.16;;;-144.91;41.38
9525;BME280;15940;48.734;9.112;2022-07-05T08:27:17;73303.78;;;-144.91;40.05
9525;BME280;15940;48.734;9.112;2022-07-05T08:29:44;73264.38;;;-144.91;41.26
9525;BME280;15940;48.734;9.112;2022-07-05T08:32:11;73266.44;;;-144.91;40.56
9525;BME280;15940;48.734;9.112;2022-07-05T08:34:38;73254.00;;;-144.91;42.11
9525;BME280;15940;48.734;9.112;2022-07-05T08:37:06;73247.78;;;-144.91;39.26
9525;BME280;15940;48.734;9.112;2022-07-05T08:39:33;73249.84;;;-144.91;41.29
9525;BME280;15940;48.734;9.112;2022-07-05T08:42:03;73249.84;;;-144.91;39.82
9525;BME280;15940;48.734;9.112;2022-07-05T08:44:33;73231.19;;;-144.91;40.57
9525;BME280;15940;48.734;9.112;2022-07-05T08:47:09;73254.00;;;-144.91;39.53
9525;BME280;15940;48.734;9.112;2022-07-05T08:49:38;73235.34;;;-144.91;40.47
9525;BME280;15940;48.734;9.112;2022-07-05T08:52:10;73198.00;;;-144.91;40.42
9525;BME280;15940;48.734;9.112;2022-07-05T08:54:37;73198.00;;;-144.91;38.58
9525;BME280;15940;48.734;9.112;2022-07-05T08:57:06;73195.94;;;-144.91;36.25
9525;BME280;15940;48.734;9.112;2022-07-05T08:59:33;73162.75;;;-144.91;38.33
9525;BME280;15940;48.734;9.112;2022-07-05T09:02:02;73166.91;;;-144.91;39.34
9525;BME280;15940;48.734;9.112;2022-07-05T09:04:31;73202.16;;;-144.91;37.16
9525;BME280;15940;48.734;9.112;2022-07-05T09:07:04;73183.50;;;-144.91;38.53
9525;BME280;15940;48.734;9.112;2022-07-05T09:09:34;73177.28;;;-144.91;37.41
9525;BME280;15940;48.734;9.112;2022-07-05T09:12:07;73164.84;;;-144.91;36.80
9525;BME280;15940;48.734;9.112;2022-07-05T09:14:34;73144.09;;;-144.91;37.41
9525;BME280;15940;48.734;9.112;2022-07-05T09:17:01;73129.56;;;-144.91;37.46
9525;BME280;15940;48.734;9.112;2022-07-05T09:19:29;73121.28;;;-144.91;36.40
9525;BME280;15940;48.734;9.112;2022-07-05T09:22:02;73094.31;;;-144.91;36.69
9525;BME280;15940;48.734;9.112;2022-07-05T09:24:29;73094.31;;;-144.91;36.89
9525;BME280;15940;48.734;9.112;2022-07-05T09:27:03;73079.81;;;-144.91;35.86
9525;BME280;15940;48.734;9.112;2022-07-05T09:29:32;73073.59;;;-144.91;35.53
9525;BME280;15940;48.734;9.112;2022-07-05T09:31:59;73096.41;;;-144.91;34.08
9525;BME280;15940;48.734;9.112;2022-07-05T09:34:28;73117.13;;;-144.91;34.72
9525;BME280;15940;48.734;9.112;2022-07-05T09:36:58;73131.66;;;-144.91;33.87
9525;BME280;15940;48.734;9.112;2022-07-05T09:39:38;73119.22;;;-144.91;36.48
9525;BME280;15940;48.734;9.112;2022-07-05T09:42:16;73069.44;;;-144.91;35.91
9525;BME280;15940;48.734;9.112;2022-07-05T09:44:52;73065.28;;;-144.91;32.30
9525;BME280;15940;48.734;9.112;2022-07-05T09:47:21;73100.53;;;-144.91;35.77
9525;BME280;15940;48.734;9.112;2022-07-05T09:49:49;73071.50;;;-144.91;34.32
9525;BME280;15940;48.734;9.112;2022-07-05T09:52:28;73036.25;;;-144.91;34.53
9525;BME280;15940;48.734;9.112;2022-07-05T09:55:04;73034.19;;;-144.91;34.03
9525;BME280;15940;48.734;9.112;2022-07-05T09:57:33;73048.69;;;-144.91;35.34
9525;BME280;15940;48.734;9.112;2022-07-05T10:00:05;73019.66;;;-144.91;33.72
9525;BME280;15940;48.734;9.112;2022-07-05T10:02:37;73021.75;;;-144.91;32.98
9525;BME280;15940;48.734;9.112;2022-07-05T10:05:12;72998.94;;;-144.91;35.43
9525;BME280;15940;48.734;9.112;2022-07-05T10:07:41;72992.72;;;-144.91;33.59
9525;BME280;15940;48.734;9.112;2022-07-05T10:10:12;72982.34;;;-144.91;33.18
9525;BME280;15940;48.734;9.112;2022-07-05T10:12:41;72947.09;;;-144.91;32.96
9525;BME280;15940;48.734;9.112;2022-07-05T10:15:12;73005.16;;;-144.91;34.73
9525;BME280;15940;48.734;9.112;2022-07-05T10:17:44;73073.59;;;-144.91;34.62
9525;BME280;15940;48.734;9.112;2022-07-05T10:20:16;73083.97;;;-144.91;33.97
9525;BME280;15940;48.734;9.112;2022-07-05T10:22:45;73048.69;;;-144.91;34.72
9525;BME280;15940;48.734;9.112;2022-07-05T10:25:13;73057.00;;;-144.91;33.91
9525;BME280;15940;48.734;9.112;2022-07-05T10:27:40;73125.44;;;-144.91;32.79
9525;BME280;15940;48.734;9.112;2022-07-05T10:30:10;73142.03;;;-144.91;35.00
9525;BME280;15940;48.734;9.112;2022-07-05T10:32:39;73083.97;;;-144.91;36.07
9525;BME280;15940;48.734;9.112;2022-07-05T10:35:07;73027.97;;;-144.91;37.72
9525;BME280;15940;48.734;9.112;2022-07-05T10:37:35;72969.91;;;-144.91;34.54
9525;BME280;15940;48.734;9.112;2022-07-05T10:40:05;73007.22;;;-144.91;32.45
9525;BME280;15940;48.734;9.112;2022-07-05T10:42:37;73025.88;;;-144.91;33.62
9525;BME280;15940;48.734;9.112;2022-07-05T10:45:33;72998.94;;;-144.91;34.81
9525;BME280;15940;48.734;9.112;2022-07-05T10:48:16;72971.97;;;-144.91;33.80
9525;BME280;15940;48.734;9.112;2022-07-05T10:50:46;72971.97;;;-144.91;33.09
9525;BME280;15940;48.734;9.112;2022-07-05T10:53:14;72928.44;;;-144.91;33.80
9525;BME280;15940;48.734;9.112;2022-07-05T10:55:56;72934.66;;;-144.91;34.17
9525;BME280;15940;48.734;9.112;2022-07-05T10:58:31;72938.78;;;-144.91;33.46
9525;BME280;15940;48.734;9.112;2022-07-05T11:01:36;72938.78;;;-144.91;31.67
9525;BME280;15940;48.734;9.112;2022-07-05T11:04:28;72998.94;;;-144.91;31.99
9525;BME280;15940;48.734;9.112;2022-07-05T11:06:59;73001.00;;;-144.91;31.58
9525;BME280;15940;48.734;9.112;2022-07-05T11:09:26;73036.25;;;-144.91;32.13
9525;BME280;15940;48.734;9.112;2022-07-05T11:12:12;73001.00;;;-144.91;33.68
9525;BME280;15940;48.734;9.112;2022-07-05T11:14:45;73011.38;;;-144.91;35.04
9525;BME280;15940;48.734;9.112;2022-07-05T11:17:21;73086.03;;;-144.91;34.14
9525;BME280;15940;48.734;9.112;2022-07-05T11:20:01;73121.28;;;-144.91;34.37
9525;BME280;15940;48.734;9.112;2022-07-05T11:22:30;73115.06;;;-144.91;34.75
9525;BME280;15940;48.734;9.112;2022-07-05T11:24:58;73071.50;;;-144.91;34.54
9525;BME280;15940;48.734;9.112;2022-07-05T11:27:26;73027.97;;;-144.91;33.36
9525;BME280;15940;48.734;9.112;2022-07-05T11:29:54;73005.16;;;-144.91;32.69
9525;BME280;15940;48.734;9.112;2022-07-05T11:32:35;72986.50;;;-144.91;33.86
9525;BME280;15940;48.734;9.112;2022-07-05T11:35:15;72947.09;;;-144.91;33.80
9525;BME280;15940;48.734;9.112;2022-07-05T11:37:59;72911.84;;;-144.91;32.93
9525;BME280;15940;48.734;9.112;2022-07-05T11:40:31;72934.66;;;-144.91;33.29
9525;BME280;15940;48.734;9.112;2022-07-05T11:43:00;72913.91;;;-144.91;32.95
9525;BME280;15940;48.734;9.112;2022-07-05T11:45:29;72918.06;;;-144.91;32.62
9525;BME280;15940;48.734;9.112;2022-07-05T11:47:58;72911.84;;;-144.91;32.94
9525;BME280;15940;48.734;9.112;2022-07-05T11:50:30;72928.44;;;-144.91;32.69
9525;BME280;15940;48.734;9.112;2022-07-05T11:52:59;72947.09;;;-144.91;32.97
9525;BME280;15940;48.734;9.112;2022-07-05T11:55:27;72918.06;;;-144.91;34.79
9525;BME280;15940;48.734;9.112;2022-07-05T11:57:57;72913.91;;;-144.91;32.11
9525;BME280;15940;48.734;9.112;2022-07-05T12:00:32;72928.44;;;-144.91;32.31
9525;BME280;15940;48.734;9.112;2022-07-05T12:03:12;72955.38;;;-144.91;33.37
9525;BME280;15940;48.734;9.112;2022-07-05T12:05:39;72990.63;;;-144.91;33.49
9525;BME280;15940;48.734;9.112;2022-07-05T12:08:06;72928.44;;;-144.91;32.94
9525;BME280;15940;48.734;9.112;2022-07-05T12:10:35;72953.31;;;-144.91;34.59
9525;BME280;15940;48.734;9.112;2022-07-05T12:13:20;72963.69;;;-144.91;33.95
9525;BME280;15940;48.734;9.112;2022-07-05T12:15:47;72934.66;;;-144.91;33.67
9525;BME280;15940;48.734;9.112;2022-07-05T12:18:15;72961.59;;;-144.91;32.30
9525;BME280;15940;48.734;9.112;2022-07-05T12:20:42;72961.59;;;-144.91;34.92
9525;BME280;15940;48.734;9.112;2022-07-05T12:23:09;72930.50;;;-144.91;33.68
9525;BME280;15940;48.734;9.112;2022-07-05T12:25:36;72905.63;;;-144.91;32.44
9525;BME280;15940;48.734;9.112;2022-07-05T12:28:04;72899.41;;;-144.91;33.02
9525;BME280;15940;48.734;9.112;2022-07-05T12:30:35;72928.44;;;-144.91;33.67
9525;BME280;15940;48.734;9.112;2022-07-05T12:33:05;72918.06;;;-144.91;34.25
9525;BME280;15940;48.734;9.112;2022-07-05T12:35:36;72901.47;;;-144.91;34.68
9525;BME280;15940;48.734;9.112;2022-07-05T12:38:08;72899.41;;;-144.91;32.50
9525;BME280;15940;48.734;9.112;2022-07-05T12:40:37;72918.06;;;-144.91;32.00
9525;BME280;15940;48.734;9.112;2022-07-05T12:43:07;72886.97;;;-144.91;32.61
9525;BME280;15940;48.734;9.112;2022-07-05T12:45:36;72897.31;;;-144.91;32.35
9525;BME280;15940;48.734;9.112;2022-07-05T12:48:05;72891.09;;;-144.91;33.55
9525;BME280;15940;48.734;9.112;2022-07-05T12:50:48;72922.22;;;-144.91;34.33
9525;BME280;15940;48.734;9.112;2022-07-05T12:53:15;72940.88;;;-144.91;34.39
9525;BME280;15940;48.734;9.112;2022-07-05T12:56:01;72938.78;;;-144.91;32.06
9525;BME280;15940;48.734;9.112;2022-07-05T12:58:51;72901.47;;;-144.91;33.43
9525;BME280;15940;48.734;9.112;2022-07-05T13:01:21;72905.63;;;-144.91;34.25